createdAt,value
2022-11-18T00:01:25.825Z,26.77
2022-11-18T00:03:54.283Z,28.57
2022-11-18T00:06:24.295Z,24.90
2022-11-18T00:08:52.274Z,31.20
2022-11-18T00:11:36.055Z,26.07
2022-11-18T00:14:23.001Z,26.27
2022-11-18T00:16:53.948Z,30.77
2022-11-18T00:19:23.059Z,29.87
2022-11-18T00:21:51.063Z,20.77
2022-11-18T00:24:19.538Z,27.57
2022-11-18T00:26:47.736Z,28.13
2022-11-18T00:29:17.648Z,28.30
2022-11-18T00:31:46.061Z,32.37
2022-11-18T00:34:15.397Z,24.67
2022-11-18T00:36:44.621Z,27.30
2022-11-18T00:39:12.897Z,27.97
2022-11-18T00:41:59.167Z,17.40
2022-11-18T00:44:28.559Z,29.13
2022-11-18T00:46:56.660Z,20.97
2022-11-18T00:49:26.212Z,25.37
2022-11-18T00:51:54.102Z,23.80
2022-11-18T00:54:21.941Z,23.70
2022-11-18T00:56:50.016Z,28.20
2022-11-18T00:59:18.234Z,25.97
2022-11-18T01:01:49.116Z,21.97
2022-11-18T01:04:17.324Z,25.20
2022-11-18T01:06:45.266Z,22.40
2022-11-18T01:09:13.051Z,22.77
2022-11-18T01:11:58.366Z,23.57
2022-11-18T01:14:26.419Z,23.13
2022-11-18T01:16:57.558Z,25.93
2022-11-18T01:19:26.094Z,25.73
2022-11-18T01:21:54.189Z,25.30
2022-11-18T01:24:21.998Z,23.03
2022-11-18T01:26:50.044Z,25.27
2022-11-18T01:29:18.674Z,19.73
2022-11-18T01:32:09.325Z,20.13
2022-11-18T01:34:36.056Z,21.70
2022-11-18T01:37:03.943Z,21.27
2022-11-18T01:39:32.284Z,23.60
2022-11-18T01:42:00.352Z,23.13
2022-11-18T01:45:05.094Z,20.27
2022-11-18T01:47:37.273Z,21.20
2022-11-18T01:50:07.784Z,24.70
2022-11-18T01:52:36.612Z,21.87
2022-11-18T01:55:09.934Z,23.33
2022-11-18T01:57:37.903Z,20.27
2022-11-18T02:00:09.114Z,22.97
2022-11-18T02:02:38.620Z,22.20
2022-11-18T02:05:11.709Z,22.97
2022-11-18T02:07:43.333Z,23.37
2022-11-18T02:10:19.612Z,22.40
2022-11-18T02:12:47.639Z,19.53
2022-11-18T02:15:15.665Z,22.00
2022-11-18T02:17:53.792Z,19.97
2022-11-18T02:20:32.172Z,19.07
2022-11-18T02:23:41.482Z,25.03
2022-11-18T02:26:46.261Z,14.30
2022-11-18T02:29:20.243Z,27.50
2022-11-18T02:31:54.945Z,23.20
2022-11-18T02:34:34.588Z,23.27
2022-11-18T02:37:07.661Z,20.63
2022-11-18T02:39:39.313Z,23.27
2022-11-18T02:42:12.605Z,23.23
2022-11-18T02:44:47.005Z,23.77
2022-11-18T02:47:17.818Z,25.17
2022-11-18T02:49:49.474Z,23.03
2022-11-18T02:52:20.322Z,21.50
2022-11-18T02:54:50.792Z,19.90
2022-11-18T02:57:20.790Z,22.27
2022-11-18T02:59:50.345Z,19.30
2022-11-18T03:02:19.929Z,23.10
2022-11-18T03:04:49.511Z,21.03
2022-11-18T03:07:22.888Z,21.27
2022-11-18T03:09:53.182Z,19.07
2022-11-18T03:12:30.900Z,23.30
2022-11-18T03:15:08.730Z,24.93
2022-11-18T03:17:47.690Z,20.67
2022-11-18T03:20:22.081Z,23.80
2022-11-18T03:22:56.262Z,22.87
2022-11-18T03:25:32.593Z,23.87
2022-11-18T03:28:08.514Z,27.57
2022-11-18T03:30:41.117Z,19.20
2022-11-18T03:33:13.246Z,22.50
2022-11-18T03:35:47.386Z,23.23
2022-11-18T03:38:19.756Z,24.88
2022-11-18T03:40:52.402Z,24.17
2022-11-18T03:43:24.423Z,24.77
2022-11-18T03:45:59.135Z,25.73
2022-11-18T03:48:30.338Z,26.37
2022-11-18T03:51:02.502Z,27.60
2022-11-18T03:53:35.202Z,19.45
2022-11-18T03:56:10.530Z,21.90
2022-11-18T03:58:48.950Z,23.17
2022-11-18T04:01:22.787Z,17.92
2022-11-18T04:03:50.845Z,26.33
2022-11-18T04:06:25.642Z,19.05
2022-11-18T04:08:59.695Z,27.73
2022-11-18T04:11:51.126Z,26.52
2022-11-18T04:14:23.480Z,21.30
2022-11-18T04:16:54.323Z,24.85
2022-11-18T04:19:22.848Z,28.67
2022-11-18T04:21:53.798Z,31.48
2022-11-18T04:24:25.149Z,27.27
2022-11-18T04:26:53.831Z,27.65
2022-11-18T04:29:22.009Z,28.70
2022-11-18T04:31:50.997Z,25.35
2022-11-18T04:34:20.798Z,26.17
2022-11-18T04:36:48.810Z,27.05
2022-11-18T04:39:18.298Z,26.80
2022-11-18T04:41:59.072Z,35.58
2022-11-18T04:44:28.186Z,30.20
2022-11-18T04:46:57.527Z,31.20
2022-11-18T04:49:28.097Z,25.83
2022-11-18T04:51:56.855Z,28.45
2022-11-18T04:54:26.082Z,32.47
2022-11-18T04:56:54.398Z,32.63
2022-11-18T04:59:24.242Z,29.23
2022-11-18T05:01:53.298Z,32.17
2022-11-18T05:04:22.944Z,35.30
2022-11-18T05:06:53.132Z,35.92
2022-11-18T05:09:21.885Z,31.50
2022-11-18T05:12:08.616Z,31.25
2022-11-18T05:14:38.637Z,28.33
2022-11-18T05:17:10.736Z,35.37
2022-11-18T05:19:42.382Z,34.13
2022-11-18T05:22:14.266Z,32.15
2022-11-18T05:24:42.056Z,33.67
2022-11-18T05:27:09.882Z,33.42
2022-11-18T05:29:37.888Z,35.33
2022-11-18T05:32:06.494Z,32.28
2022-11-18T05:34:34.420Z,36.40
2022-11-18T05:37:03.603Z,34.00
2022-11-18T05:39:32.998Z,36.05
2022-11-18T05:42:18.572Z,29.30
2022-11-18T05:44:46.734Z,38.50
2022-11-18T05:47:15.035Z,30.02
2022-11-18T05:49:42.782Z,32.85
2022-11-18T05:52:10.773Z,36.22
2022-11-18T05:54:45.708Z,32.92
2022-11-18T05:57:13.615Z,24.75
2022-11-18T05:59:41.397Z,31.92
2022-11-18T06:02:14.759Z,34.60
2022-11-18T06:04:46.267Z,20.75
2022-11-18T06:07:20.230Z,24.73
2022-11-18T06:09:52.914Z,22.70
2022-11-18T06:12:24.307Z,31.27
2022-11-18T06:14:56.079Z,21.17
2022-11-18T06:17:27.753Z,26.10
2022-11-18T06:19:56.061Z,21.63
2022-11-18T06:22:24.033Z,22.00
2022-11-18T06:24:53.358Z,26.17
2022-11-18T06:27:21.601Z,27.25
2022-11-18T06:29:49.479Z,30.42
2022-11-18T06:32:17.441Z,21.10
2022-11-18T06:34:45.212Z,27.95
2022-11-18T06:37:17.243Z,21.17
2022-11-18T06:39:45.060Z,27.48
2022-11-18T06:42:35.401Z,19.55
2022-11-18T06:45:02.549Z,21.02
2022-11-18T06:47:30.559Z,22.83
2022-11-18T06:49:58.463Z,22.42
2022-11-18T06:52:26.321Z,19.92
2022-11-18T06:54:54.415Z,25.17
2022-11-18T06:57:23.894Z,19.25
2022-11-18T06:59:51.740Z,21.88
2022-11-18T07:02:19.664Z,23.33
2022-11-18T07:04:47.647Z,25.05
2022-11-18T07:07:15.779Z,17.02
2022-11-18T07:09:44.611Z,23.33
2022-11-18T07:12:13.021Z,26.33
2022-11-18T07:14:42.164Z,23.55
2022-11-18T07:17:10.023Z,19.85
2022-11-18T07:19:37.827Z,26.67
2022-11-18T07:22:05.865Z,23.60
2022-11-18T07:24:33.783Z,24.75
2022-11-18T07:27:01.730Z,20.63
2022-11-18T07:29:29.501Z,25.33
2022-11-18T07:31:58.931Z,23.90
2022-11-18T07:34:26.838Z,25.90
2022-11-18T07:36:54.997Z,26.48
2022-11-18T07:39:23.063Z,23.45
2022-11-18T07:41:51.022Z,16.05
2022-11-18T07:44:18.893Z,26.85
2022-11-18T07:46:46.875Z,19.77
2022-11-18T07:49:16.753Z,24.50
2022-11-18T07:51:45.050Z,16.08
2022-11-18T07:54:16.530Z,21.70
2022-11-18T07:56:44.557Z,23.88
2022-11-18T07:59:12.613Z,23.02
2022-11-18T08:01:40.579Z,22.30
2022-11-18T08:04:11.019Z,21.77
2022-11-18T08:06:41.365Z,19.92
2022-11-18T08:09:09.979Z,16.48
2022-11-18T08:11:38.366Z,24.05
2022-11-18T08:14:06.180Z,23.70
2022-11-18T08:16:34.316Z,22.63
2022-11-18T08:19:02.360Z,25.95
2022-11-18T08:21:30.629Z,18.58
2022-11-18T08:23:59.921Z,24.52
2022-11-18T08:26:29.486Z,18.98
2022-11-18T08:28:58.909Z,17.38
2022-11-18T08:31:28.239Z,14.77
2022-11-18T08:34:00.442Z,21.20
2022-11-18T08:36:31.028Z,15.43
2022-11-18T08:39:03.308Z,20.60
2022-11-18T08:41:34.691Z,19.67
2022-11-18T08:44:03.228Z,22.08
2022-11-18T08:46:31.222Z,20.50
2022-11-18T08:49:01.933Z,23.10
2022-11-18T08:51:30.139Z,17.17
2022-11-18T08:53:58.029Z,19.05
2022-11-18T08:56:27.355Z,24.85
2022-11-18T08:58:55.630Z,25.48
2022-11-18T09:01:24.068Z,20.27
2022-11-18T09:03:52.015Z,23.25
2022-11-18T09:06:22.755Z,19.27
2022-11-18T09:08:50.583Z,21.42
2022-11-18T09:11:20.146Z,21.58
2022-11-18T09:14:38.986Z,19.83
2022-11-18T09:16:40.863Z,18.83
2022-11-18T09:19:32.145Z,14.43
2022-11-18T09:21:56.554Z,22.70
2022-11-18T09:24:24.553Z,25.48
2022-11-18T09:26:53.576Z,22.90
2022-11-18T09:29:26.136Z,23.00
2022-11-18T09:31:54.324Z,16.08
2022-11-18T09:34:22.574Z,18.25
2022-11-18T09:36:50.488Z,26.42
2022-11-18T09:39:18.770Z,20.52
2022-11-18T09:41:48.594Z,25.10
2022-11-18T09:44:35.127Z,20.17
2022-11-18T09:47:15.463Z,22.73
2022-11-18T09:49:45.806Z,17.60
2022-11-18T09:52:19.607Z,18.13
2022-11-18T09:54:48.220Z,16.92
2022-11-18T09:57:17.972Z,17.50
2022-11-18T09:59:48.123Z,15.27
2022-11-18T10:02:30.310Z,11.57
2022-11-18T10:05:02.758Z,10.13
2022-11-18T10:07:40.592Z,16.40
2022-11-18T10:10:16.246Z,15.65
2022-11-18T10:12:50.710Z,13.75
2022-11-18T10:15:25.274Z,13.73
2022-11-18T10:18:02.427Z,10.00
2022-11-18T10:20:42.225Z,8.30
2022-11-18T10:23:16.717Z,10.65
2022-11-18T10:25:44.830Z,17.67
2022-11-18T10:28:19.038Z,10.82
2022-11-18T10:30:48.193Z,8.48
2022-11-18T10:33:26.744Z,12.27
2022-11-18T10:36:12.874Z,10.15
2022-11-18T10:38:43.241Z,9.45
2022-11-18T10:41:16.566Z,13.38
2022-11-18T10:43:50.543Z,9.13
2022-11-18T10:46:26.441Z,11.43
2022-11-18T10:49:16.462Z,10.82
2022-11-18T10:51:49.907Z,11.75
2022-11-18T10:54:21.068Z,10.55
2022-11-18T10:56:57.570Z,10.43
2022-11-18T10:59:32.587Z,16.33
2022-11-18T11:02:13.978Z,10.63
2022-11-18T11:04:41.952Z,16.48
2022-11-18T11:07:18.133Z,11.75
2022-11-18T11:09:46.380Z,10.40
2022-11-18T11:12:16.648Z,13.23
2022-11-18T11:14:52.281Z,12.23
2022-11-18T11:17:27.363Z,8.52
2022-11-18T11:20:04.786Z,11.75
2022-11-18T11:22:32.856Z,9.40
2022-11-18T11:25:00.768Z,7.40
2022-11-18T11:30:38.643Z,12.75
2022-11-18T11:33:23.833Z,6.80
2022-11-18T11:36:11.075Z,11.88
2022-11-18T11:38:58.666Z,11.40
2022-11-18T11:41:32.184Z,12.27
2022-11-18T11:44:13.909Z,13.48
2022-11-18T11:47:12.356Z,10.98
2022-11-18T11:49:53.632Z,10.82
2022-11-18T11:52:32.976Z,10.90
2022-11-18T11:55:15.965Z,9.35
2022-11-18T11:57:59.239Z,11.68
2022-11-18T12:00:28.801Z,10.95
2022-11-18T12:03:13.281Z,10.80
2022-11-18T12:05:43.263Z,14.02
2022-11-18T12:08:15.338Z,13.88
2022-11-18T12:10:47.956Z,9.23
2022-11-18T12:13:37.438Z,14.63
2022-11-18T12:16:22.364Z,10.90
2022-11-18T12:18:56.048Z,6.75
2022-11-18T12:22:03.981Z,9.27
2022-11-18T12:24:36.316Z,11.63
2022-11-18T12:27:07.791Z,7.55
2022-11-18T12:29:59.045Z,6.63
2022-11-18T12:32:34.737Z,7.75
2022-11-18T12:35:05.410Z,8.82
2022-11-18T12:37:45.969Z,8.68
2022-11-18T12:40:42.466Z,11.77
2022-11-18T12:44:04.438Z,8.90
2022-11-18T12:46:54.323Z,8.70
2022-11-18T12:50:11.337Z,9.13
2022-11-18T12:52:54.757Z,5.93
2022-11-18T12:55:27.542Z,5.03
2022-11-18T12:57:58.493Z,8.65
2022-11-18T13:00:33.283Z,7.28
2022-11-18T13:03:02.723Z,9.10
2022-11-18T13:05:34.024Z,6.75
2022-11-18T13:08:15.712Z,13.07
2022-11-18T13:10:53.190Z,10.88
2022-11-18T13:13:28.296Z,10.88
2022-11-18T13:16:17.136Z,7.28
2022-11-18T13:18:52.088Z,6.50
2022-11-18T13:21:42.935Z,7.10
2022-11-18T13:24:14.786Z,7.68
2022-11-18T13:26:44.135Z,8.48
2022-11-18T13:29:37.696Z,8.70
2022-11-18T13:32:18.673Z,6.55
2022-11-18T13:34:48.718Z,7.47
2022-11-18T13:37:21.052Z,10.63
2022-11-18T13:39:50.711Z,7.85
2022-11-18T13:42:22.183Z,5.57
2022-11-18T13:44:55.161Z,8.60
2022-11-18T13:47:30.056Z,8.55
2022-11-18T13:50:04.654Z,8.88
2022-11-18T13:52:37.031Z,9.85
2022-11-18T13:55:10.442Z,7.40
2022-11-18T13:57:41.517Z,8.10
2022-11-18T14:00:23.219Z,7.03
2022-11-18T14:02:57.089Z,8.57
2022-11-18T14:05:25.759Z,7.43
2022-11-18T14:08:07.214Z,6.53
2022-11-18T14:10:43.646Z,6.35
2022-11-18T14:13:20.125Z,8.38
2022-11-18T14:15:48.266Z,8.30
2022-11-18T14:18:24.295Z,5.20
2022-11-18T14:20:53.951Z,6.80
2022-11-18T14:23:28.389Z,7.05
2022-11-18T14:25:58.410Z,6.22
2022-11-18T14:28:28.502Z,5.75
2022-11-18T14:30:59.318Z,8.82
2022-11-18T14:33:28.707Z,8.30
2022-11-18T14:35:59.497Z,7.85
2022-11-18T14:38:43.536Z,8.05
2022-11-18T14:41:44.310Z,4.05
2022-11-18T14:44:13.844Z,6.55
2022-11-18T14:46:47.582Z,4.82
2022-11-18T14:49:18.933Z,6.43
2022-11-18T14:51:47.030Z,6.60
2022-11-18T14:57:07.156Z,4.47
2022-11-18T14:59:34.995Z,7.75
2022-11-18T15:00:27.206Z,7.40
2022-11-18T15:02:02.914Z,4.88
2022-11-18T15:04:30.825Z,14.23
2022-11-18T15:06:58.749Z,10.98
2022-11-18T15:09:26.810Z,4.95
2022-11-18T15:11:54.773Z,8.50
2022-11-18T15:14:23.940Z,6.00
2022-11-18T15:16:51.765Z,5.63
2022-11-18T15:19:19.742Z,4.70
2022-11-18T15:21:47.531Z,4.75
2022-11-18T15:24:15.793Z,5.38
2022-11-18T15:26:45.972Z,4.95
2022-11-18T15:29:18.476Z,4.47
2022-11-18T15:31:48.442Z,8.52
2022-11-18T15:34:18.151Z,6.05
2022-11-18T15:36:46.503Z,8.68
2022-11-18T15:39:14.511Z,11.45
2022-11-18T15:41:43.826Z,7.57
2022-11-18T15:44:12.742Z,9.60
2022-11-18T15:46:41.454Z,6.30
2022-11-18T15:49:14.635Z,6.95
2022-11-18T15:51:42.662Z,6.28
2022-11-18T15:54:10.552Z,9.23
2022-11-18T15:56:39.738Z,5.55
2022-11-18T15:59:09.923Z,8.48
2022-11-18T16:01:40.338Z,8.90
2022-11-18T16:04:11.099Z,9.07
2022-11-18T16:06:39.643Z,6.97
2022-11-18T16:09:07.833Z,7.63
2022-11-18T16:11:53.155Z,6.25
2022-11-18T16:14:22.928Z,6.32
2022-11-18T16:16:54.019Z,7.63
2022-11-18T16:19:24.931Z,8.55
2022-11-18T16:21:54.731Z,12.85
2022-11-18T16:24:24.722Z,14.10
2022-11-18T16:26:52.949Z,8.02
2022-11-18T16:29:21.320Z,9.48
2022-11-18T16:31:52.266Z,10.20
2022-11-18T16:34:22.067Z,11.35
2022-11-18T16:36:53.663Z,6.47
2022-11-18T16:39:25.040Z,10.85
2022-11-18T16:41:54.744Z,9.25
2022-11-18T16:44:23.218Z,9.55
2022-11-18T16:46:52.630Z,6.95
2022-11-18T16:49:22.485Z,10.73
2022-11-18T16:51:54.363Z,7.07
2022-11-18T16:54:24.270Z,7.22
2022-11-18T16:56:53.138Z,13.57
2022-11-18T16:59:22.492Z,7.97
2022-11-18T17:01:51.432Z,12.45
2022-11-18T17:04:19.940Z,11.93
2022-11-18T17:06:48.449Z,12.43
2022-11-18T17:09:19.656Z,8.15
2022-11-18T17:11:48.154Z,9.52
2022-11-18T17:14:16.535Z,6.85
2022-11-18T17:16:44.614Z,8.88
2022-11-18T17:19:15.784Z,14.95
2022-11-18T17:21:44.340Z,6.97
2022-11-18T17:24:21.029Z,9.95
2022-11-18T17:26:49.177Z,6.30
2022-11-18T17:29:17.496Z,6.75
2022-11-18T17:31:45.588Z,8.35
2022-11-18T17:34:14.703Z,9.55
2022-11-18T17:36:43.489Z,8.43
2022-11-18T17:39:13.285Z,6.97
2022-11-18T17:42:00.365Z,8.55
2022-11-18T17:44:29.099Z,10.38
2022-11-18T17:46:57.113Z,8.35
2022-11-18T17:49:25.834Z,9.02
2022-11-18T17:51:53.759Z,10.68
2022-11-18T17:54:22.423Z,8.32
2022-11-18T17:56:52.968Z,9.38
2022-11-18T17:59:22.893Z,6.95
2022-11-18T18:01:57.301Z,10.00
2022-11-18T18:04:26.961Z,11.38
2022-11-18T18:06:55.269Z,9.80
2022-11-18T18:09:30.152Z,13.20
2022-11-18T18:12:20.833Z,11.88
2022-11-18T18:14:54.765Z,9.18
2022-11-18T18:17:22.629Z,10.30
2022-11-18T18:19:50.420Z,11.00
2022-11-18T18:22:18.271Z,9.13
2022-11-18T18:24:46.193Z,9.05
2022-11-18T18:27:15.373Z,11.75
2022-11-18T18:29:43.167Z,8.65
2022-11-18T18:32:11.028Z,10.95
2022-11-18T18:34:38.811Z,15.70
2022-11-18T18:37:06.679Z,10.88
2022-11-18T18:39:34.417Z,12.95
2022-11-18T18:42:03.565Z,8.15
2022-11-18T18:44:46.745Z,9.65
2022-11-18T18:47:14.844Z,15.38
2022-11-18T18:49:42.760Z,8.05
2022-11-18T18:52:10.681Z,9.88
2022-11-18T18:54:38.567Z,11.57
2022-11-18T18:57:06.522Z,8.93
2022-11-18T18:59:36.555Z,9.98
2022-11-18T19:02:05.047Z,9.38
2022-11-18T19:04:32.954Z,9.63
2022-11-18T19:07:00.998Z,9.25
2022-11-18T19:09:29.457Z,16.10
2022-11-18T19:12:14.831Z,12.98
2022-11-18T19:14:44.313Z,8.85
2022-11-18T19:17:48.073Z,12.23
2022-11-18T19:20:36.689Z,13.88
2022-11-18T19:23:10.092Z,9.90
2022-11-18T19:25:38.777Z,9.32
2022-11-18T19:28:06.589Z,10.63
2022-11-18T19:30:35.945Z,12.25
2022-11-18T19:33:05.525Z,13.60
2022-11-18T19:35:33.278Z,13.25
2022-11-18T19:38:01.063Z,10.15
2022-11-18T19:40:28.925Z,13.02
2022-11-18T19:42:57.995Z,11.10
2022-11-18T19:45:25.948Z,10.55
2022-11-18T19:47:55.290Z,12.63
2022-11-18T19:50:23.098Z,13.57
2022-11-18T19:52:51.026Z,13.73
2022-11-18T19:55:18.858Z,12.13
2022-11-18T19:57:46.646Z,14.90
2022-11-18T20:00:15.639Z,9.07
2022-11-18T20:02:43.504Z,10.65
2022-11-18T20:05:30.121Z,9.05
2022-11-18T20:07:57.990Z,8.60
2022-11-18T20:10:25.841Z,10.73
2022-11-18T20:12:53.751Z,12.13
2022-11-18T20:15:21.525Z,12.00
2022-11-18T20:17:49.378Z,13.20
2022-11-18T20:20:18.738Z,11.85
2022-11-18T20:22:46.761Z,12.15
2022-11-18T20:25:15.527Z,16.33
2022-11-18T20:27:43.486Z,10.80
2022-11-18T20:30:12.241Z,10.55
2022-11-18T20:32:40.141Z,10.15
2022-11-18T20:35:08.370Z,16.50
2022-11-18T20:37:37.730Z,14.45
2022-11-18T20:40:06.621Z,14.07
2022-11-18T20:42:52.918Z,9.90
2022-11-18T20:45:21.076Z,15.13
2022-11-18T20:48:01.943Z,12.43
2022-11-18T20:50:29.917Z,11.25
2022-11-18T20:52:59.190Z,13.65
2022-11-18T20:55:29.178Z,8.85
2022-11-18T20:57:56.999Z,13.07
2022-11-18T21:00:24.880Z,13.57
2022-11-18T21:02:52.711Z,13.23
2022-11-18T21:05:20.509Z,12.57
2022-11-18T21:07:50.112Z,11.00
2022-11-18T21:10:19.473Z,12.52
2022-11-18T21:13:01.287Z,14.77
2022-11-18T21:15:29.144Z,14.95
2022-11-18T21:17:57.325Z,13.10
2022-11-18T21:20:43.059Z,13.07
2022-11-18T21:23:12.142Z,16.02
2022-11-18T21:25:41.396Z,14.13
2022-11-18T21:28:09.393Z,16.73
2022-11-18T21:30:38.123Z,11.57
2022-11-18T21:33:06.270Z,18.63
2022-11-18T21:35:34.864Z,14.85
2022-11-18T21:38:04.260Z,12.02
2022-11-18T21:40:32.260Z,16.13
2022-11-18T21:43:01.495Z,14.13
2022-11-18T21:45:29.365Z,12.60
2022-11-18T21:47:57.264Z,10.45
2022-11-18T21:50:25.132Z,10.93
2022-11-18T21:52:53.094Z,10.38
2022-11-18T21:55:21.535Z,14.80
2022-11-18T21:57:49.542Z,12.25
2022-11-18T22:00:19.523Z,11.13
2022-11-18T22:02:47.485Z,10.93
2022-11-18T22:05:16.435Z,14.35
2022-11-18T22:07:44.474Z,11.43
2022-11-18T22:10:12.366Z,10.30
2022-11-18T22:12:44.149Z,12.63
2022-11-18T22:15:12.410Z,12.73
2022-11-18T22:17:41.726Z,9.45
2022-11-18T22:20:12.460Z,9.98
2022-11-18T22:22:40.401Z,9.40
2022-11-18T22:25:08.766Z,10.15
2022-11-18T22:27:36.920Z,9.50
2022-11-18T22:30:05.570Z,8.55
2022-11-18T22:32:34.617Z,9.88
2022-11-18T22:35:03.892Z,10.38
2022-11-18T22:37:31.692Z,10.50
2022-11-18T22:39:59.449Z,12.65
2022-11-18T22:42:44.942Z,8.13
2022-11-18T22:45:12.708Z,8.98
2022-11-18T22:47:40.525Z,11.73
2022-11-18T22:50:10.799Z,8.63
2022-11-18T22:52:38.933Z,12.05
2022-11-18T22:55:07.129Z,9.93
2022-11-18T22:57:35.755Z,9.85
2022-11-18T23:00:03.939Z,11.48
2022-11-18T23:02:31.709Z,10.98
2022-11-18T23:04:59.554Z,11.45
2022-11-18T23:07:28.761Z,11.18
2022-11-18T23:09:56.629Z,11.20
2022-11-18T23:12:47.470Z,13.07
2022-11-18T23:15:15.744Z,11.95
2022-11-18T23:17:43.604Z,11.32
2022-11-18T23:20:12.439Z,16.75
2022-11-18T23:22:41.666Z,13.23
2022-11-18T23:25:09.560Z,14.20
2022-11-18T23:27:37.397Z,14.05
2022-11-18T23:30:06.302Z,12.88
2022-11-18T23:32:34.300Z,11.65
2022-11-18T23:35:02.061Z,12.43
2022-11-18T23:37:29.983Z,13.27
2022-11-18T23:39:59.067Z,11.13
2022-11-18T23:42:26.934Z,12.38
2022-11-18T23:44:56.061Z,14.68
2022-11-18T23:47:25.580Z,10.15
2022-11-18T23:49:53.477Z,15.30
2022-11-18T23:52:21.409Z,11.63
2022-11-18T23:54:51.963Z,12.00
2022-11-18T23:57:21.558Z,14.65
2022-11-18T23:59:49.450Z,10.23
